createdAt,value
2023-03-26T00:01:46.905Z,2.50
2023-03-26T00:04:22.043Z,2.50
2023-03-26T00:06:56.140Z,2.40
2023-03-26T00:09:30.215Z,2.30
2023-03-26T00:12:03.358Z,2.40
2023-03-26T00:14:36.433Z,2.00
2023-03-26T00:17:09.673Z,2.00
2023-03-26T00:19:43.287Z,1.90
2023-03-26T00:22:17.195Z,2.20
2023-03-26T00:24:51.394Z,2.10
2023-03-26T00:27:25.474Z,2.10
2023-03-26T00:29:59.899Z,1.70
2023-03-26T00:32:34.049Z,1.90
2023-03-26T00:35:08.051Z,1.60
2023-03-26T00:37:43.211Z,1.70
2023-03-26T00:40:17.600Z,1.50
2023-03-26T00:42:50.568Z,2.00
2023-03-26T00:45:23.914Z,1.90
2023-03-26T00:47:57.113Z,1.90
2023-03-26T00:50:30.315Z,1.60
2023-03-26T00:53:03.327Z,1.40
2023-03-26T00:55:36.686Z,1.60
2023-03-26T01:11:40.842Z,2.00
2023-03-26T01:14:19.889Z,1.90
2023-03-26T01:16:56.331Z,2.70
2023-03-26T01:27:33.774Z,1.70
2023-03-26T01:30:15.231Z,1.90
2023-03-26T01:33:04.251Z,1.80
2023-03-26T01:35:48.741Z,2.20
2023-03-26T01:38:39.560Z,2.20
2023-03-26T01:41:15.669Z,2.00
2023-03-26T01:43:55.795Z,1.90
2023-03-26T01:46:30.678Z,1.70
2023-03-26T01:49:05.672Z,1.70
2023-03-26T01:51:40.225Z,1.90
2023-03-26T01:54:19.564Z,1.80
2023-03-26T01:57:04.977Z,2.40
2023-03-26T02:00:01.736Z,1.90
2023-03-26T02:02:46.601Z,3.00
2023-03-26T02:05:25.542Z,2.10
2023-03-26T02:08:09.808Z,2.10
2023-03-26T02:10:46.898Z,2.00
2023-03-26T02:13:20.584Z,2.20
2023-03-26T02:16:05.618Z,1.80
2023-03-26T02:18:39.339Z,1.90
2023-03-26T02:21:20.458Z,2.10
2023-03-26T02:24:03.143Z,2.00
2023-03-26T02:26:38.944Z,2.20
2023-03-26T02:29:20.702Z,2.30
2023-03-26T02:31:54.570Z,1.80
2023-03-26T02:34:28.040Z,2.20
2023-03-26T02:37:01.558Z,2.20
2023-03-26T02:39:34.620Z,2.40
2023-03-26T02:42:13.371Z,2.30
2023-03-26T02:44:51.549Z,2.50
2023-03-26T02:47:24.918Z,2.60
2023-03-26T02:49:57.945Z,2.70
2023-03-26T02:52:54.280Z,2.50
2023-03-26T02:55:27.504Z,2.10
2023-03-26T02:58:01.634Z,2.50
2023-03-26T03:00:41.126Z,3.10
2023-03-26T03:03:30.213Z,2.00
2023-03-26T03:06:23.544Z,2.30
2023-03-26T03:08:58.316Z,2.20
2023-03-26T03:11:43.951Z,2.30
2023-03-26T03:14:17.080Z,2.20
2023-03-26T03:16:50.223Z,2.20
2023-03-26T03:19:23.631Z,2.60
2023-03-26T03:21:56.760Z,2.20
2023-03-26T03:24:30.166Z,2.40
2023-03-26T03:27:03.240Z,2.30
2023-03-26T03:29:41.566Z,2.50
2023-03-26T03:32:37.756Z,1.90
2023-03-26T03:35:12.217Z,2.10
2023-03-26T03:37:46.284Z,1.60
2023-03-26T03:40:20.487Z,2.00
2023-03-26T03:42:54.046Z,1.90
2023-03-26T03:45:35.169Z,2.00
2023-03-26T03:48:21.628Z,2.20
2023-03-26T03:50:55.184Z,2.10
2023-03-26T03:53:37.300Z,1.90
2023-03-26T03:56:14.645Z,1.90
2023-03-26T03:59:10.470Z,2.00
2023-03-26T04:01:46.962Z,2.00
2023-03-26T04:04:46.568Z,1.90
2023-03-26T04:07:22.379Z,1.90
2023-03-26T04:10:30.922Z,2.00
2023-03-26T04:13:19.472Z,1.90
2023-03-26T04:16:01.695Z,1.90
2023-03-26T04:18:36.937Z,1.80
2023-03-26T04:21:16.073Z,1.60
2023-03-26T04:23:50.426Z,1.60
2023-03-26T04:26:52.892Z,1.90
2023-03-26T04:29:38.454Z,1.60
2023-03-26T04:32:19.673Z,1.60
2023-03-26T04:34:53.293Z,1.50
2023-03-26T04:37:34.699Z,1.30
2023-03-26T04:40:20.735Z,1.40
2023-03-26T04:43:03.622Z,1.30
2023-03-26T04:45:57.625Z,1.40
2023-03-26T04:48:32.439Z,1.40
2023-03-26T04:51:08.023Z,1.50
2023-03-26T04:53:41.270Z,1.50
2023-03-26T04:56:41.532Z,1.50
2023-03-26T04:59:30.485Z,1.30
2023-03-26T05:02:05.289Z,1.10
2023-03-26T05:04:46.109Z,1.10
2023-03-26T05:07:25.190Z,1.20
2023-03-26T05:10:03.588Z,1.00
2023-03-26T05:13:05.902Z,1.10
2023-03-26T05:15:42.019Z,1.10
2023-03-26T05:18:38.519Z,1.40
2023-03-26T05:21:12.252Z,1.00
2023-03-26T05:23:45.607Z,0.80
2023-03-26T05:26:26.275Z,0.90
2023-03-26T05:28:59.388Z,1.30
2023-03-26T05:31:39.199Z,1.30
2023-03-26T05:34:12.319Z,1.20
2023-03-26T05:36:45.817Z,1.50
2023-03-26T05:39:46.034Z,1.20
2023-03-26T05:42:54.605Z,1.00
2023-03-26T05:45:40.610Z,1.10
2023-03-26T05:48:21.883Z,1.00
2023-03-26T05:50:56.985Z,1.30
2023-03-26T05:53:31.302Z,1.00
2023-03-26T05:56:22.938Z,0.90
2023-03-26T05:59:28.220Z,1.20
2023-03-26T06:02:19.765Z,1.20
2023-03-26T06:05:13.945Z,1.00
2023-03-26T06:07:58.325Z,1.00
2023-03-26T06:10:40.480Z,1.20
2023-03-26T06:13:13.797Z,0.90
2023-03-26T06:15:47.014Z,1.10
2023-03-26T06:18:37.378Z,2.00
2023-03-26T06:21:36.124Z,1.40
2023-03-26T06:24:16.742Z,1.50
2023-03-26T06:27:10.856Z,1.30
2023-03-26T06:30:11.279Z,1.40
2023-03-26T06:32:51.608Z,1.40
2023-03-26T06:35:30.198Z,1.50
2023-03-26T06:38:03.378Z,1.30
2023-03-26T06:40:37.498Z,1.70
2023-03-26T06:43:25.684Z,1.50
2023-03-26T06:46:17.604Z,1.40
2023-03-26T06:49:09.063Z,1.60
2023-03-26T06:52:02.252Z,1.50
2023-03-26T06:54:53.571Z,1.50
2023-03-26T06:57:46.102Z,1.60
2023-03-26T07:00:25.708Z,1.70
2023-03-26T07:03:17.679Z,1.50
2023-03-26T07:06:10.827Z,1.50
2023-03-26T07:08:57.597Z,1.50
2023-03-26T07:12:06.004Z,1.10
2023-03-26T07:14:42.038Z,1.70
2023-03-26T07:17:33.129Z,1.30
2023-03-26T07:20:18.181Z,1.50
2023-03-26T07:22:53.227Z,1.10
2023-03-26T07:25:57.313Z,1.50
2023-03-26T07:29:06.403Z,1.50
2023-03-26T07:32:06.095Z,1.20
2023-03-26T07:34:57.166Z,1.40
2023-03-26T07:37:50.502Z,1.30
2023-03-26T07:40:54.382Z,1.20
2023-03-26T07:44:17.682Z,1.10
2023-03-26T07:47:12.936Z,1.80
2023-03-26T07:50:08.558Z,1.30
2023-03-26T07:53:03.113Z,1.00
2023-03-26T07:55:58.348Z,1.50
2023-03-26T07:59:04.636Z,1.10
2023-03-26T08:02:09.124Z,1.30
2023-03-26T08:05:01.562Z,2.00
2023-03-26T08:08:16.611Z,1.30
2023-03-26T08:11:16.092Z,1.60
2023-03-26T08:14:08.772Z,1.40
2023-03-26T08:16:51.573Z,1.30
2023-03-26T08:19:41.252Z,1.20
2023-03-26T08:22:21.020Z,1.50
2023-03-26T08:25:13.983Z,1.50
2023-03-26T08:27:57.813Z,1.60
2023-03-26T08:30:32.747Z,1.50
2023-03-26T08:33:16.960Z,1.50
2023-03-26T08:35:50.917Z,1.40
2023-03-26T08:38:24.685Z,2.20
2023-03-26T08:41:48.560Z,1.60
2023-03-26T08:45:14.632Z,1.40
2023-03-26T08:48:36.265Z,1.50
2023-03-26T08:52:16.576Z,1.40
2023-03-26T08:55:39.452Z,2.10
2023-03-26T08:58:58.362Z,1.30
2023-03-26T09:02:20.873Z,1.40
2023-03-26T09:05:43.364Z,1.50
2023-03-26T09:08:59.316Z,1.70
2023-03-26T09:11:56.124Z,1.80
2023-03-26T09:15:17.595Z,1.20
2023-03-26T09:18:43.286Z,1.50
2023-03-26T09:21:49.993Z,1.20
2023-03-26T09:25:19.174Z,0.90
2023-03-26T09:28:24.771Z,1.60
2023-03-26T09:31:33.325Z,1.80
2023-03-26T09:34:30.166Z,1.20
2023-03-26T09:37:19.312Z,1.20
2023-03-26T09:40:06.529Z,1.10
2023-03-26T09:42:52.430Z,1.10
2023-03-26T09:45:59.907Z,1.20
2023-03-26T09:49:01.264Z,1.30
2023-03-26T09:51:57.241Z,1.10
2023-03-26T09:55:20.443Z,1.10
2023-03-26T09:58:18.005Z,1.00
2023-03-26T10:01:01.087Z,1.20
2023-03-26T10:03:47.310Z,1.50
2023-03-26T10:06:44.651Z,1.60
2023-03-26T10:09:48.544Z,1.60
2023-03-26T10:12:33.599Z,2.50
2023-03-26T10:15:30.223Z,2.30
2023-03-26T10:18:27.120Z,1.60
2023-03-26T10:21:10.925Z,1.50
2023-03-26T10:24:02.915Z,1.50
2023-03-26T10:27:10.123Z,1.20
2023-03-26T10:30:16.683Z,1.30
2023-03-26T10:32:59.603Z,1.30
2023-03-26T10:35:48.575Z,1.60
2023-03-26T10:38:34.361Z,1.50
2023-03-26T10:41:15.352Z,2.50
2023-03-26T10:44:13.747Z,2.70
2023-03-26T10:47:42.960Z,2.00
2023-03-26T10:50:51.033Z,1.70
2023-03-26T10:53:36.051Z,1.70
2023-03-26T10:56:22.587Z,1.70
2023-03-26T10:58:58.108Z,1.60
2023-03-26T11:01:43.375Z,1.60
2023-03-26T11:04:38.429Z,1.60
2023-03-26T11:07:22.590Z,1.60
2023-03-26T11:10:03.708Z,1.60
2023-03-26T11:12:46.261Z,1.90
2023-03-26T11:15:28.234Z,2.10
2023-03-26T11:18:16.311Z,2.10
2023-03-26T11:20:57.240Z,2.10
2023-03-26T11:24:06.137Z,3.30
2023-03-26T11:26:50.920Z,3.30
2023-03-26T11:29:46.760Z,3.00
2023-03-26T11:32:24.307Z,1.90
2023-03-26T11:35:08.351Z,2.60
2023-03-26T11:37:45.809Z,2.10
2023-03-26T11:40:25.331Z,2.30
2023-03-26T11:43:09.162Z,1.70
2023-03-26T11:45:46.255Z,1.50
2023-03-26T11:48:24.651Z,1.60
2023-03-26T11:51:04.538Z,1.70
2023-03-26T11:53:39.890Z,1.50
2023-03-26T11:56:22.349Z,1.90
2023-03-26T11:59:01.541Z,2.00
2023-03-26T12:01:50.851Z,1.60
2023-03-26T12:04:35.222Z,1.90
2023-03-26T12:07:18.988Z,2.10
2023-03-26T12:10:18.050Z,2.30
2023-03-26T12:12:53.636Z,2.20
2023-03-26T12:15:28.661Z,2.60
2023-03-26T12:18:25.142Z,3.00
2023-03-26T12:21:11.375Z,2.60
2023-03-26T12:24:01.681Z,2.50
2023-03-26T12:26:42.670Z,2.70
2023-03-26T12:29:18.275Z,2.40
2023-03-26T12:32:08.850Z,2.00
2023-03-26T12:34:42.717Z,1.90
2023-03-26T12:37:39.184Z,2.10
2023-03-26T12:40:36.984Z,2.00
2023-03-26T12:44:53.520Z,1.70
2023-03-26T12:47:59.834Z,1.90
2023-03-26T12:49:23.371Z,1.50
2023-03-26T12:52:01.456Z,1.50
2023-03-26T12:54:48.654Z,2.10
2023-03-26T12:57:26.950Z,2.00
2023-03-26T13:00:20.349Z,1.40
2023-03-26T13:03:23.840Z,1.50
2023-03-26T13:06:19.946Z,1.40
2023-03-26T13:09:29.331Z,1.60
2023-03-26T13:12:14.844Z,1.70
2023-03-26T13:15:23.857Z,1.90
2023-03-26T13:18:13.475Z,2.20
2023-03-26T13:21:02.229Z,1.90
2023-03-26T13:23:48.283Z,1.50
2023-03-26T13:26:39.275Z,1.50
2023-03-26T13:29:22.052Z,1.70
2023-03-26T13:32:06.131Z,1.40
2023-03-26T13:34:49.251Z,1.30
2023-03-26T13:37:32.220Z,1.60
2023-03-26T13:40:25.582Z,2.00
2023-03-26T13:43:33.996Z,1.30
2023-03-26T13:46:21.497Z,1.60
2023-03-26T13:48:59.822Z,1.30
2023-03-26T13:51:40.889Z,1.40
2023-03-26T13:54:24.241Z,1.60
2023-03-26T13:57:06.331Z,1.80
2023-03-26T13:59:45.587Z,1.60
2023-03-26T14:02:26.003Z,1.50
2023-03-26T14:05:08.478Z,2.00
2023-03-26T14:07:48.402Z,2.10
2023-03-26T14:10:27.667Z,1.80
2023-03-26T14:13:08.856Z,2.00
2023-03-26T14:15:47.873Z,1.70
2023-03-26T14:18:35.007Z,1.80
2023-03-26T14:21:36.799Z,2.00
2023-03-26T14:24:47.301Z,1.70
2023-03-26T14:27:46.278Z,2.30
2023-03-26T14:30:51.049Z,1.70
2023-03-26T14:33:45.693Z,1.50
2023-03-26T14:36:35.730Z,1.50
2023-03-26T14:39:35.378Z,2.90
2023-03-26T14:42:26.046Z,1.70
2023-03-26T14:45:51.035Z,1.70
2023-03-26T14:49:41.712Z,2.00
2023-03-26T14:52:22.613Z,1.60
2023-03-26T14:55:01.336Z,1.40
2023-03-26T14:58:08.952Z,1.80
2023-03-26T15:01:28.247Z,1.70
2023-03-26T15:04:57.763Z,2.00
2023-03-26T15:08:18.581Z,2.10
2023-03-26T15:11:22.739Z,1.70
2023-03-26T15:14:46.207Z,1.70
2023-03-26T15:17:47.276Z,1.40
2023-03-26T15:21:27.941Z,1.90
2023-03-26T15:27:31.710Z,2.30
2023-03-26T15:30:58.101Z,3.40
2023-03-26T15:34:38.621Z,2.90
2023-03-26T15:38:00.163Z,3.70
2023-03-26T15:40:48.105Z,7.10
2023-03-26T15:43:22.819Z,4.10
2023-03-26T15:46:26.366Z,3.80
2023-03-26T15:49:16.711Z,3.40
2023-03-26T15:52:00.152Z,3.30
2023-03-26T15:54:39.895Z,2.80
2023-03-26T15:57:27.676Z,3.20
2023-03-26T16:00:22.486Z,2.60
2023-03-26T16:03:17.683Z,2.90
2023-03-26T16:06:28.468Z,2.40
2023-03-26T16:09:22.236Z,3.20
2023-03-26T16:12:00.370Z,2.10
2023-03-26T16:14:48.499Z,2.50
2023-03-26T16:17:25.730Z,2.60
2023-03-26T16:20:21.215Z,2.40
2023-03-26T16:23:03.860Z,2.00
2023-03-26T16:25:58.447Z,3.00
2023-03-26T16:28:59.414Z,2.20
2023-03-26T16:31:39.425Z,2.30
2023-03-26T16:34:42.838Z,2.20
2023-03-26T16:37:50.318Z,2.00
2023-03-26T16:40:50.544Z,3.40
2023-03-26T16:44:02.534Z,2.40
2023-03-26T16:46:50.558Z,4.80
2023-03-26T16:49:46.263Z,4.30
2023-03-26T16:52:43.517Z,6.90
2023-03-26T16:55:27.745Z,2.80
2023-03-26T16:58:12.434Z,2.70
2023-03-26T17:00:52.685Z,2.80
2023-03-26T17:03:52.458Z,2.70
2023-03-26T17:07:05.892Z,2.40
2023-03-26T17:09:52.745Z,6.70
2023-03-26T17:12:35.113Z,5.20
2023-03-26T17:15:30.434Z,2.90
2023-03-26T17:18:29.125Z,2.80
2023-03-26T17:21:10.790Z,3.60
2023-03-26T17:24:04.155Z,3.60
2023-03-26T17:26:52.355Z,3.50
2023-03-26T17:29:58.178Z,3.90
2023-03-26T17:33:01.052Z,4.50
2023-03-26T17:35:47.125Z,5.10
2023-03-26T17:39:42.557Z,4.70
2023-03-26T17:42:30.854Z,4.90
2023-03-26T17:45:04.732Z,4.80
2023-03-26T17:47:43.624Z,4.90
2023-03-26T17:50:22.868Z,5.20
2023-03-26T17:53:01.887Z,21.30
2023-03-26T17:55:39.418Z,8.00
2023-03-26T17:58:28.324Z,5.30
2023-03-26T18:01:14.387Z,6.00
2023-03-26T18:03:51.598Z,5.30
2023-03-26T18:06:52.687Z,5.40
2023-03-26T18:09:46.512Z,6.50
2023-03-26T18:12:44.800Z,5.20
2023-03-26T18:15:36.530Z,5.20
2023-03-26T18:18:20.089Z,6.30
2023-03-26T18:20:55.280Z,6.50
2023-03-26T18:23:37.258Z,7.00
2023-03-26T18:26:21.081Z,7.10
2023-03-26T18:29:11.693Z,6.10
2023-03-26T18:34:27.440Z,5.50
2023-03-26T18:37:17.906Z,6.50
2023-03-26T18:40:12.131Z,6.80
2023-03-26T18:42:48.826Z,5.90
2023-03-26T18:45:31.094Z,5.60
2023-03-26T18:48:07.021Z,5.50
2023-03-26T18:50:43.312Z,5.10
2023-03-26T18:53:22.407Z,6.50
2023-03-26T18:55:55.865Z,4.90
2023-03-26T18:58:31.572Z,5.90
2023-03-26T19:01:10.170Z,5.30
2023-03-26T19:03:50.955Z,5.50
2023-03-26T19:06:26.159Z,5.20
2023-03-26T19:09:00.102Z,4.30
2023-03-26T19:11:38.515Z,5.60
2023-03-26T19:14:18.230Z,4.40
2023-03-26T19:16:57.098Z,3.70
2023-03-26T19:19:37.791Z,4.70
2023-03-26T19:22:14.057Z,4.30
2023-03-26T19:24:47.467Z,3.80
2023-03-26T19:27:20.766Z,3.50
2023-03-26T19:29:54.420Z,3.20
2023-03-26T19:32:34.754Z,3.70
2023-03-26T19:37:57.616Z,4.10
2023-03-26T19:40:34.934Z,3.50
2023-03-26T19:43:11.728Z,3.70
2023-03-26T19:46:00.250Z,3.70
2023-03-26T19:48:45.388Z,4.70
2023-03-26T19:51:33.012Z,4.60
2023-03-26T19:54:14.368Z,4.50
2023-03-26T19:56:47.647Z,4.60
2023-03-26T19:59:20.747Z,4.40
2023-03-26T20:01:54.012Z,3.50
2023-03-26T20:04:27.480Z,4.20
2023-03-26T20:07:01.212Z,3.20
2023-03-26T20:09:34.362Z,3.70
2023-03-26T20:12:07.644Z,3.20
2023-03-26T20:14:45.495Z,3.60
2023-03-26T20:17:22.484Z,3.60
2023-03-26T20:19:55.619Z,3.70
2023-03-26T20:22:29.576Z,3.10
2023-03-26T20:25:03.478Z,3.50
2023-03-26T20:27:37.113Z,3.30
2023-03-26T20:30:16.431Z,3.30
2023-03-26T20:33:11.917Z,2.70
2023-03-26T20:35:46.183Z,3.50
2023-03-26T20:38:21.702Z,2.90
2023-03-26T20:40:55.491Z,3.70
2023-03-26T20:43:30.436Z,3.60
2023-03-26T20:46:04.233Z,3.50
2023-03-26T20:48:37.955Z,3.60
2023-03-26T20:51:14.157Z,3.70
2023-03-26T20:53:48.566Z,3.00
2023-03-26T20:56:22.880Z,3.20
2023-03-26T20:59:09.771Z,3.40
2023-03-26T21:01:43.931Z,3.50
2023-03-26T21:04:18.068Z,3.30
2023-03-26T21:06:51.881Z,3.60
2023-03-26T21:09:35.655Z,3.20
2023-03-26T21:12:18.121Z,3.50
2023-03-26T21:14:52.746Z,4.40
2023-03-26T21:17:30.753Z,4.30
2023-03-26T21:20:12.089Z,3.60
2023-03-26T21:22:53.323Z,4.60
2023-03-26T21:25:37.279Z,4.40
2023-03-26T21:28:31.989Z,4.50
2023-03-26T21:31:19.519Z,4.40
2023-03-26T21:33:55.389Z,4.40
2023-03-26T21:36:30.022Z,4.10
2023-03-26T21:39:06.648Z,4.10
2023-03-26T21:42:04.730Z,4.40
2023-03-26T21:44:40.445Z,4.10
2023-03-26T21:47:15.433Z,4.30
2023-03-26T21:49:49.777Z,4.50
2023-03-26T21:52:24.664Z,4.60
2023-03-26T21:55:01.021Z,4.50
2023-03-26T21:57:55.121Z,5.30
2023-03-26T22:00:43.175Z,5.40
2023-03-26T22:03:24.094Z,5.20
2023-03-26T22:06:04.640Z,5.20
2023-03-26T22:08:40.918Z,5.50
2023-03-26T22:11:15.186Z,4.90
2023-03-26T22:13:48.241Z,5.20
2023-03-26T22:16:25.246Z,4.90
2023-03-26T22:18:59.148Z,4.60
2023-03-26T22:21:33.914Z,4.50
2023-03-26T22:24:07.745Z,4.00
2023-03-26T22:26:40.927Z,4.80
2023-03-26T22:29:15.090Z,4.60
2023-03-26T22:31:48.215Z,4.30
2023-03-26T22:34:21.488Z,3.90
2023-03-26T22:36:54.569Z,3.90
2023-03-26T22:39:27.660Z,4.00
2023-03-26T22:42:02.268Z,3.80
2023-03-26T22:44:35.370Z,3.80
2023-03-26T22:47:09.558Z,3.50
2023-03-26T22:49:42.825Z,2.90
2023-03-26T22:52:15.875Z,3.90
2023-03-26T22:54:49.020Z,3.30
2023-03-26T22:57:23.114Z,3.50
2023-03-26T22:59:56.337Z,3.40
2023-03-26T23:02:29.631Z,3.80
2023-03-26T23:05:02.971Z,4.20
2023-03-26T23:07:36.051Z,3.50
2023-03-26T23:10:11.348Z,3.80
2023-03-26T23:12:44.562Z,3.80
2023-03-26T23:15:17.886Z,3.90
2023-03-26T23:17:54.831Z,3.80
2023-03-26T23:20:29.361Z,3.30
2023-03-26T23:23:02.651Z,3.30
2023-03-26T23:25:35.852Z,3.00
2023-03-26T23:28:10.130Z,3.10
2023-03-26T23:30:47.722Z,3.00
2023-03-26T23:33:22.397Z,3.40
2023-03-26T23:36:00.048Z,3.50
2023-03-26T23:38:43.432Z,3.00
2023-03-26T23:41:19.926Z,3.40
2023-03-26T23:43:55.813Z,2.90
2023-03-26T23:46:33.245Z,3.10
2023-03-26T23:49:06.709Z,3.30
2023-03-26T23:51:39.779Z,3.80
2023-03-26T23:54:12.969Z,3.20
2023-03-26T23:56:46.266Z,3.30
2023-03-26T23:59:19.339Z,3.60
